createdAt,value
2023-04-17T00:01:31.672Z,101812.22
2023-04-17T00:04:03.556Z,101800.69
2023-04-17T00:06:35.289Z,101796.25
2023-04-17T00:09:06.987Z,101817.44
2023-04-17T00:11:38.598Z,101768.69
2023-04-17T00:14:09.895Z,101820.03
2023-04-17T00:16:41.309Z,101824.44
2023-04-17T00:19:12.869Z,101821.75
2023-04-17T00:21:44.388Z,101813.78
2023-04-17T00:24:15.622Z,101814.63
2023-04-17T00:26:46.898Z,101816.34
2023-04-17T00:29:18.153Z,101819.88
2023-04-17T00:31:49.513Z,101818.09
2023-04-17T00:34:20.896Z,101819.88
2023-04-17T00:36:52.236Z,101811.06
2023-04-17T00:39:23.488Z,101815.47
2023-04-17T00:41:54.816Z,101818.13
2023-04-17T00:44:26.432Z,101805.72
2023-04-17T00:46:57.858Z,101811.03
2023-04-17T00:49:29.461Z,101816.31
2023-04-17T00:52:01.405Z,101816.28
2023-04-17T00:54:33.067Z,101796.78
2023-04-17T00:57:04.427Z,101798.53
2023-04-17T00:59:37.274Z,101817.13
2023-04-17T01:02:08.717Z,101819.75
2023-04-17T01:04:40.382Z,101825.03
2023-04-17T01:07:11.707Z,101824.16
2023-04-17T01:09:43.078Z,101818.00
2023-04-17T01:12:22.336Z,101807.41
2023-04-17T01:14:55.404Z,101804.75
2023-04-17T01:17:27.757Z,101821.53
2023-04-17T01:19:59.156Z,101819.75
2023-04-17T01:22:30.665Z,101819.75
2023-04-17T01:25:02.246Z,101820.63
2023-04-17T01:27:35.106Z,101773.66
2023-04-17T01:30:07.087Z,101797.59
2023-04-17T01:32:38.416Z,101819.69
2023-04-17T01:35:10.595Z,101806.41
2023-04-17T01:37:41.968Z,101826.75
2023-04-17T01:40:13.575Z,101826.72
2023-04-17T01:42:44.983Z,101820.53
2023-04-17T01:45:16.415Z,101820.50
2023-04-17T01:47:47.799Z,101818.75
2023-04-17T01:50:19.234Z,101824.03
2023-04-17T01:52:50.567Z,101812.50
2023-04-17T01:55:21.818Z,101821.34
2023-04-17T01:57:53.242Z,101828.38
2023-04-17T02:00:24.636Z,101831.91
2023-04-17T02:02:56.000Z,101837.16
2023-04-17T02:05:27.447Z,101836.28
2023-04-17T02:07:58.792Z,101821.19
2023-04-17T02:10:30.578Z,101822.94
2023-04-17T02:13:01.872Z,101839.75
2023-04-17T02:15:33.167Z,101830.03
2023-04-17T02:18:08.039Z,101840.59
2023-04-17T02:20:39.430Z,101808.69
2023-04-17T02:23:10.975Z,101818.41
2023-04-17T02:25:42.222Z,101833.47
2023-04-17T02:28:13.569Z,101845.81
2023-04-17T02:30:45.754Z,101836.97
2023-04-17T02:33:17.438Z,101811.22
2023-04-17T02:35:48.981Z,101813.91
2023-04-17T02:38:20.227Z,101833.38
2023-04-17T02:40:51.506Z,101837.75
2023-04-17T02:43:22.804Z,101838.63
2023-04-17T02:45:54.097Z,101846.53
2023-04-17T02:48:25.442Z,101829.69
2023-04-17T02:50:56.794Z,101842.09
2023-04-17T02:53:28.044Z,101825.22
2023-04-17T02:55:59.335Z,101842.94
2023-04-17T02:58:30.950Z,101844.69
2023-04-17T03:01:03.231Z,101840.25
2023-04-17T03:03:34.938Z,101845.50
2023-04-17T03:06:08.897Z,101836.69
2023-04-17T03:08:40.162Z,101823.34
2023-04-17T03:11:11.500Z,101847.22
2023-04-17T03:13:43.387Z,101818.88
2023-04-17T03:16:14.937Z,101847.16
2023-04-17T03:18:46.252Z,101835.63
2023-04-17T03:21:17.589Z,101847.09
2023-04-17T03:23:48.856Z,101844.41
2023-04-17T03:26:20.492Z,101848.78
2023-04-17T03:28:51.782Z,101848.75
2023-04-17T03:31:24.481Z,101853.16
2023-04-17T03:33:55.899Z,101845.13
2023-04-17T03:36:28.142Z,101850.47
2023-04-17T03:38:59.466Z,101857.50
2023-04-17T03:41:30.734Z,101853.91
2023-04-17T03:44:02.082Z,101853.03
2023-04-17T03:46:33.434Z,101851.25
2023-04-17T03:49:05.043Z,101854.75
2023-04-17T03:51:36.350Z,101804.22
2023-04-17T03:54:07.630Z,101845.78
2023-04-17T03:56:38.911Z,101866.13
2023-04-17T03:59:10.338Z,101870.50
2023-04-17T04:01:43.762Z,101866.94
2023-04-17T04:04:16.179Z,101852.72
2023-04-17T04:06:49.290Z,101871.28
2023-04-17T04:09:21.212Z,101873.00
2023-04-17T04:11:53.348Z,101872.16
2023-04-17T04:14:24.614Z,101867.72
2023-04-17T04:16:56.077Z,101864.19
2023-04-17T04:19:27.424Z,101871.25
2023-04-17T04:21:58.776Z,101880.94
2023-04-17T04:24:30.392Z,101880.03
2023-04-17T04:27:04.424Z,101874.75
2023-04-17T04:29:37.554Z,101872.97
2023-04-17T04:32:09.640Z,101880.88
2023-04-17T04:34:42.001Z,101876.47
2023-04-17T04:37:15.262Z,101879.13
2023-04-17T04:39:47.840Z,101876.47
2023-04-17T04:42:22.290Z,101876.50
2023-04-17T04:44:53.791Z,101884.41
2023-04-17T04:47:25.714Z,101887.09
2023-04-17T04:49:57.049Z,101886.22
2023-04-17T04:52:28.344Z,101883.56
2023-04-17T04:54:59.712Z,101881.69
2023-04-17T04:57:31.174Z,101891.53
2023-04-17T05:00:06.205Z,101889.75
2023-04-17T05:02:37.676Z,101878.19
2023-04-17T05:05:10.855Z,101907.47
2023-04-17T05:07:42.179Z,101907.50
2023-04-17T05:10:13.665Z,101889.84
2023-04-17T05:12:44.931Z,101905.81
2023-04-17T05:15:16.176Z,101920.91
2023-04-17T05:17:47.834Z,101919.22
2023-04-17T05:20:19.348Z,101907.72
2023-04-17T05:22:50.634Z,101903.34
2023-04-17T05:25:22.515Z,101909.69
2023-04-17T05:27:53.868Z,101904.38
2023-04-17T05:30:25.251Z,101925.72
2023-04-17T05:32:56.611Z,101927.59
2023-04-17T05:35:28.273Z,101928.59
2023-04-17T05:37:59.535Z,101942.81
2023-04-17T05:40:30.851Z,101946.50
2023-04-17T05:43:09.200Z,101920.91
2023-04-17T05:45:41.703Z,101913.06
2023-04-17T05:48:13.048Z,101941.53
2023-04-17T05:50:44.440Z,101940.72
2023-04-17T05:53:15.891Z,101930.16
2023-04-17T05:55:47.230Z,101941.81
2023-04-17T05:58:23.552Z,101943.66
2023-04-17T06:00:56.745Z,101943.78
2023-04-17T06:03:28.219Z,101945.63
2023-04-17T06:05:59.786Z,101954.56
2023-04-17T06:08:31.242Z,101951.13
2023-04-17T06:11:02.544Z,101952.00
2023-04-17T06:13:33.823Z,101965.38
2023-04-17T06:16:05.565Z,101963.66
2023-04-17T06:18:36.864Z,101963.72
2023-04-17T06:21:08.376Z,101951.38
2023-04-17T06:23:39.638Z,101964.75
2023-04-17T06:26:12.171Z,101964.78
2023-04-17T06:28:43.516Z,101968.38
2023-04-17T06:31:14.927Z,101971.00
2023-04-17T06:33:47.658Z,101966.63
2023-04-17T06:36:18.912Z,101965.75
2023-04-17T06:38:50.484Z,101965.78
2023-04-17T06:41:22.355Z,101964.00
2023-04-17T06:43:53.634Z,101964.91
2023-04-17T06:46:25.028Z,101923.31
2023-04-17T06:48:59.356Z,101967.59
2023-04-17T06:51:30.700Z,101969.38
2023-04-17T06:54:02.152Z,101976.44
2023-04-17T06:56:33.461Z,101976.38
2023-04-17T06:59:04.769Z,101980.81
2023-04-17T07:01:37.980Z,101979.88
2023-04-17T07:04:10.754Z,101988.66
2023-04-17T07:06:42.203Z,101972.72
2023-04-17T07:09:13.567Z,101989.44
2023-04-17T07:11:44.920Z,101983.13
2023-04-17T07:14:16.463Z,102003.38
2023-04-17T07:16:47.926Z,101997.06
2023-04-17T07:19:19.638Z,102000.56
2023-04-17T07:21:50.904Z,102005.84
2023-04-17T07:24:22.417Z,102003.97
2023-04-17T07:26:53.787Z,102002.22
2023-04-17T07:29:25.084Z,102010.19
2023-04-17T07:31:56.545Z,102012.78
2023-04-17T07:34:31.034Z,102003.72
2023-04-17T07:37:02.303Z,102018.63
2023-04-17T07:39:33.566Z,102007.84
2023-04-17T07:42:07.226Z,102016.81
2023-04-17T07:44:39.073Z,102000.97
2023-04-17T07:47:10.491Z,102013.38
2023-04-17T07:49:41.935Z,102022.19
2023-04-17T07:52:15.142Z,102017.69
2023-04-17T07:54:46.571Z,102003.53
2023-04-17T07:57:18.438Z,102010.63
2023-04-17T07:59:49.711Z,102015.78
2023-04-17T08:02:22.157Z,102001.38
2023-04-17T08:04:55.291Z,101993.34
2023-04-17T08:07:27.000Z,101991.59
2023-04-17T08:09:58.286Z,102017.13
2023-04-17T08:12:29.650Z,102009.97
2023-04-17T08:15:00.958Z,102001.94
2023-04-17T08:17:33.768Z,102013.31
2023-04-17T08:20:11.094Z,102002.53
2023-04-17T08:22:44.421Z,102008.81
2023-04-17T08:25:16.102Z,102002.63
2023-04-17T08:27:47.543Z,102010.50
2023-04-17T08:30:20.135Z,102026.47
2023-04-17T08:32:52.211Z,102008.69
2023-04-17T08:35:23.785Z,102013.00
2023-04-17T08:37:58.632Z,102009.31
2023-04-17T08:40:30.059Z,102004.81
2023-04-17T08:43:02.030Z,102009.31
2023-04-17T08:45:37.262Z,101995.97
2023-04-17T08:48:08.708Z,102006.78
2023-04-17T08:50:42.199Z,101988.19
2023-04-17T08:53:13.463Z,102007.50
2023-04-17T08:55:46.405Z,102002.97
2023-04-17T08:58:17.822Z,102017.06
2023-04-17T09:00:49.297Z,102009.69
2023-04-17T09:03:21.569Z,102001.56
2023-04-17T09:05:57.107Z,102003.25
2023-04-17T09:08:29.127Z,102001.47
2023-04-17T09:11:00.465Z,102009.34
2023-04-17T09:13:40.105Z,102004.97
2023-04-17T09:16:13.280Z,101995.28
2023-04-17T09:18:46.021Z,102012.97
2023-04-17T09:21:18.723Z,102003.09
2023-04-17T09:23:50.174Z,102009.19
2023-04-17T09:26:23.123Z,102009.78
2023-04-17T09:29:04.936Z,102014.06
2023-04-17T09:31:38.894Z,102000.84
2023-04-17T09:34:13.867Z,101999.28
2023-04-17T09:36:45.389Z,102011.28
2023-04-17T09:39:20.377Z,101990.53
2023-04-17T09:42:03.592Z,102001.56
2023-04-17T09:44:36.753Z,102005.66
2023-04-17T09:47:09.659Z,102003.81
2023-04-17T09:49:55.744Z,102003.00
2023-04-17T09:52:28.594Z,101996.63
2023-04-17T09:55:06.874Z,102003.00
2023-04-17T09:57:38.448Z,102002.81
2023-04-17T10:00:14.608Z,101968.75
2023-04-17T10:02:49.238Z,101982.03
2023-04-17T10:05:22.443Z,101999.13
2023-04-17T10:07:53.765Z,102013.22
2023-04-17T10:10:33.670Z,102005.03
2023-04-17T10:13:11.154Z,102001.50
2023-04-17T10:15:46.111Z,101999.72
2023-04-17T10:18:24.994Z,101998.69
2023-04-17T10:20:57.050Z,102014.00
2023-04-17T10:23:33.934Z,101992.22
2023-04-17T10:26:26.983Z,102003.03
2023-04-17T10:28:58.276Z,102012.97
2023-04-17T10:32:13.965Z,102001.69
2023-04-17T10:34:46.296Z,101987.72
2023-04-17T10:37:18.842Z,101989.28
2023-04-17T10:39:56.489Z,101986.31
2023-04-17T10:42:32.619Z,101997.13
2023-04-17T10:45:17.496Z,101991.31
2023-04-17T10:47:58.288Z,102003.38
2023-04-17T10:50:29.718Z,102003.38
2023-04-17T10:53:01.285Z,101994.81
2023-04-17T10:55:32.678Z,101984.75
2023-04-17T10:58:12.984Z,101977.97
2023-04-17T11:00:52.021Z,101978.59
2023-04-17T11:03:23.892Z,101986.13
2023-04-17T11:05:55.667Z,101990.03
2023-04-17T11:08:26.952Z,101984.50
2023-04-17T11:10:58.272Z,101988.63
2023-04-17T11:13:33.720Z,101983.06
2023-04-17T11:16:05.326Z,101991.41
2023-04-17T11:18:37.766Z,101983.56
2023-04-17T11:21:13.507Z,101983.47
2023-04-17T11:23:52.205Z,101972.63
2023-04-17T11:26:23.501Z,101993.59
2023-04-17T11:28:54.780Z,101993.66
2023-04-17T11:31:26.495Z,101993.47
2023-04-17T11:33:58.397Z,101974.75
2023-04-17T11:36:29.688Z,102003.88
2023-04-17T11:39:01.344Z,102001.09
2023-04-17T11:41:39.405Z,101990.28
2023-04-17T11:44:14.853Z,101988.44
2023-04-17T11:46:53.846Z,101982.28
2023-04-17T11:49:26.408Z,101984.19
2023-04-17T11:52:01.318Z,101998.53
2023-04-17T11:54:37.484Z,101996.72
2023-04-17T11:57:13.636Z,101989.06
2023-04-17T11:59:46.036Z,102005.84
2023-04-17T12:02:17.819Z,102002.97
2023-04-17T12:04:49.498Z,102004.69
2023-04-17T12:07:23.858Z,101996.50
2023-04-17T12:09:58.927Z,101967.16
2023-04-17T12:12:31.007Z,101997.88
2023-04-17T12:15:03.342Z,101978.97
2023-04-17T12:17:34.660Z,101980.13
2023-04-17T12:20:06.490Z,101996.28
2023-04-17T12:22:37.725Z,101996.41
2023-04-17T12:25:09.124Z,101996.22
2023-04-17T12:27:40.661Z,102000.84
2023-04-17T12:30:12.741Z,102006.00
2023-04-17T12:32:48.533Z,102007.19
2023-04-17T12:35:21.337Z,102006.56
2023-04-17T12:37:52.657Z,102009.25
2023-04-17T12:40:25.034Z,102011.81
2023-04-17T12:42:56.419Z,102018.16
2023-04-17T12:45:28.121Z,102017.56
2023-04-17T12:47:59.462Z,102013.19
2023-04-17T12:50:31.145Z,102006.94
2023-04-17T12:53:02.411Z,102008.66
2023-04-17T12:55:33.938Z,101997.81
2023-04-17T12:58:09.968Z,102009.59
2023-04-17T13:00:44.147Z,102015.91
2023-04-17T13:03:15.995Z,102047.41
2023-04-17T13:05:53.016Z,102020.94
2023-04-17T13:08:24.301Z,102016.84
2023-04-17T13:10:56.287Z,102011.88
2023-04-17T13:13:27.593Z,102020.69
2023-04-17T13:15:58.889Z,102018.06
2023-04-17T13:18:30.582Z,102020.59
2023-04-17T13:21:01.958Z,102013.47
2023-04-17T13:23:33.265Z,102019.66
2023-04-17T13:26:04.716Z,102022.13
2023-04-17T13:28:35.978Z,102026.63
2023-04-17T13:31:07.394Z,102024.00
2023-04-17T13:33:40.216Z,102016.91
2023-04-17T13:36:11.870Z,102005.28
2023-04-17T13:38:43.149Z,102010.59
2023-04-17T13:41:14.446Z,102015.13
2023-04-17T13:43:45.702Z,102008.94
2023-04-17T13:46:17.110Z,102022.28
2023-04-17T13:48:48.392Z,102015.31
2023-04-17T13:51:19.661Z,102027.91
2023-04-17T13:53:51.082Z,102033.38
2023-04-17T13:56:23.431Z,102010.19
2023-04-17T13:58:55.421Z,102020.88
2023-04-17T14:01:26.710Z,102013.75
2023-04-17T14:04:00.651Z,101996.94
2023-04-17T14:06:33.475Z,102017.28
2023-04-17T14:09:05.766Z,102010.47
2023-04-17T14:11:37.032Z,102005.31
2023-04-17T14:14:08.348Z,102009.69
2023-04-17T14:16:40.853Z,102005.16
2023-04-17T14:19:14.774Z,101984.91
2023-04-17T14:21:46.474Z,102007.97
2023-04-17T14:24:17.940Z,102004.41
2023-04-17T14:26:49.230Z,102012.50
2023-04-17T14:29:21.148Z,102001.13
2023-04-17T14:31:53.020Z,102007.34
2023-04-17T14:34:24.538Z,101987.78
2023-04-17T14:36:58.042Z,101993.19
2023-04-17T14:39:31.489Z,102001.22
2023-04-17T14:42:03.077Z,102007.63
2023-04-17T14:44:34.350Z,101988.16
2023-04-17T14:47:05.943Z,101997.16
2023-04-17T14:49:37.396Z,101989.44
2023-04-17T14:52:08.665Z,102002.72
2023-04-17T14:54:40.113Z,102004.47
2023-04-17T14:57:11.776Z,101999.03
2023-04-17T14:59:44.362Z,101993.94
2023-04-17T15:02:15.739Z,101986.66
2023-04-17T15:04:48.781Z,102009.69
2023-04-17T15:07:20.658Z,101969.00
2023-04-17T15:09:51.934Z,101996.34
2023-04-17T15:12:23.247Z,101998.28
2023-04-17T15:14:56.290Z,102001.06
2023-04-17T15:17:27.661Z,102004.69
2023-04-17T15:20:00.667Z,101999.41
2023-04-17T15:22:32.463Z,101997.59
2023-04-17T15:25:04.055Z,101996.66
2023-04-17T15:27:35.304Z,102016.34
2023-04-17T15:30:08.832Z,102019.09
2023-04-17T15:32:41.469Z,101986.41
2023-04-17T15:35:12.924Z,102014.00
2023-04-17T15:37:44.202Z,102018.53
2023-04-17T15:40:16.330Z,102015.06
2023-04-17T15:42:47.619Z,102006.25
2023-04-17T15:45:18.967Z,102019.66
2023-04-17T15:47:50.421Z,102008.97
2023-04-17T15:50:21.755Z,102012.53
2023-04-17T15:52:53.057Z,102009.00
2023-04-17T15:55:24.324Z,102006.41
2023-04-17T15:57:55.891Z,102008.22
2023-04-17T16:00:27.274Z,101993.34
2023-04-17T16:02:58.718Z,102003.94
2023-04-17T16:05:30.371Z,102006.69
2023-04-17T16:08:01.807Z,101972.13
2023-04-17T16:10:34.667Z,102005.84
2023-04-17T16:13:05.942Z,102018.38
2023-04-17T16:15:37.227Z,102025.56
2023-04-17T16:18:08.793Z,102030.94
2023-04-17T16:20:40.176Z,102028.31
2023-04-17T16:23:11.687Z,102033.63
2023-04-17T16:25:42.959Z,102030.06
2023-04-17T16:28:14.232Z,102031.81
2023-04-17T16:30:45.595Z,102025.63
2023-04-17T16:33:16.843Z,102038.97
2023-04-17T16:35:48.096Z,102041.63
2023-04-17T16:38:19.395Z,102031.88
2023-04-17T16:40:53.389Z,102040.81
2023-04-17T16:43:26.533Z,102029.28
2023-04-17T16:45:58.519Z,102041.75
2023-04-17T16:48:31.033Z,102059.50
2023-04-17T16:51:04.804Z,102028.53
2023-04-17T16:53:36.174Z,102060.38
2023-04-17T16:56:07.804Z,102068.41
2023-04-17T16:58:39.081Z,102069.34
2023-04-17T17:01:10.609Z,102061.38
2023-04-17T17:03:43.137Z,102065.84
2023-04-17T17:06:14.749Z,102071.19
2023-04-17T17:08:46.793Z,102070.31
2023-04-17T17:11:19.424Z,102054.38
2023-04-17T17:13:53.005Z,102057.06
2023-04-17T17:16:24.443Z,102065.03
2023-04-17T17:18:56.246Z,102070.34
2023-04-17T17:21:28.565Z,102072.13
2023-04-17T17:24:00.487Z,102067.69
2023-04-17T17:26:31.858Z,102087.16
2023-04-17T17:29:03.338Z,102076.56
2023-04-17T17:31:34.682Z,102084.53
2023-04-17T17:34:22.660Z,102093.38
2023-04-17T17:36:58.299Z,102064.09
2023-04-17T17:39:29.555Z,102096.88
2023-04-17T17:42:02.883Z,102099.50
2023-04-17T17:44:35.111Z,102120.72
2023-04-17T17:47:07.867Z,102103.88
2023-04-17T17:49:39.500Z,102098.53
2023-04-17T17:52:10.974Z,102102.94
2023-04-17T17:54:42.670Z,102099.31
2023-04-17T17:57:13.958Z,102100.22
2023-04-17T17:59:45.343Z,102073.59
2023-04-17T18:02:16.790Z,102095.72
2023-04-17T18:04:48.212Z,102124.91
2023-04-17T18:07:19.693Z,102117.81
2023-04-17T18:09:51.106Z,102116.00
2023-04-17T18:12:22.427Z,102092.84
2023-04-17T18:14:53.923Z,102105.25
2023-04-17T18:17:25.230Z,102120.22
2023-04-17T18:19:56.523Z,102129.00
2023-04-17T18:22:27.831Z,102098.78
2023-04-17T18:24:59.105Z,102120.03
2023-04-17T18:27:30.914Z,102100.44
2023-04-17T18:30:06.774Z,102108.28
2023-04-17T18:32:38.050Z,102120.75
2023-04-17T18:35:09.595Z,102135.72
2023-04-17T18:37:43.218Z,102121.50
2023-04-17T18:40:14.606Z,102133.81
2023-04-17T18:42:45.940Z,102097.34
2023-04-17T18:45:17.443Z,102122.22
2023-04-17T18:47:48.764Z,102128.34
2023-04-17T18:50:20.304Z,102126.50
2023-04-17T18:52:51.590Z,102109.53
2023-04-17T18:55:22.872Z,102129.91
2023-04-17T18:57:54.182Z,102110.25
2023-04-17T19:00:25.642Z,102122.63
2023-04-17T19:02:57.334Z,102134.09
2023-04-17T19:05:28.741Z,102139.31
2023-04-17T19:08:00.233Z,102113.56
2023-04-17T19:10:31.539Z,102133.03
2023-04-17T19:13:05.230Z,102136.50
2023-04-17T19:15:36.540Z,102130.19
2023-04-17T19:18:08.969Z,102116.81
2023-04-17T19:20:42.323Z,102116.75
2023-04-17T19:23:14.031Z,102142.38
2023-04-17T19:25:50.561Z,102135.31
2023-04-17T19:28:25.293Z,102119.19
2023-04-17T19:30:57.776Z,102141.34
2023-04-17T19:33:29.267Z,102133.34
2023-04-17T19:36:03.063Z,102117.28
2023-04-17T19:38:34.397Z,102135.00
2023-04-17T19:41:11.885Z,102134.03
2023-04-17T19:43:51.075Z,102143.69
2023-04-17T19:46:24.366Z,102133.84
2023-04-17T19:48:55.952Z,102113.44
2023-04-17T19:51:32.185Z,102148.16
2023-04-17T19:54:03.456Z,102150.00
2023-04-17T19:56:34.891Z,102133.13
2023-04-17T19:59:06.283Z,102150.09
2023-04-17T20:01:37.937Z,102122.66
2023-04-17T20:04:09.300Z,102136.94
2023-04-17T20:06:40.872Z,102138.75
2023-04-17T20:09:14.550Z,102135.16
2023-04-17T20:11:46.302Z,102150.44
2023-04-17T20:14:19.482Z,102150.34
2023-04-17T20:16:51.223Z,102164.56
2023-04-17T20:19:23.162Z,102127.19
2023-04-17T20:21:54.439Z,102159.22
2023-04-17T20:24:25.803Z,102146.75
2023-04-17T20:26:58.046Z,102165.41
2023-04-17T20:29:30.997Z,102159.09
2023-04-17T20:32:03.883Z,102138.72
2023-04-17T20:34:35.521Z,102151.03
2023-04-17T20:37:06.842Z,102164.38
2023-04-17T20:39:39.221Z,102184.66
2023-04-17T20:42:10.695Z,102183.78
2023-04-17T20:44:41.944Z,102144.69
2023-04-17T20:47:13.207Z,102181.09
2023-04-17T20:49:44.480Z,102169.47
2023-04-17T20:52:15.713Z,102180.19
2023-04-17T20:54:47.080Z,102174.00
2023-04-17T20:57:18.344Z,102175.78
2023-04-17T20:59:49.602Z,102178.41
2023-04-17T21:02:21.908Z,102178.41
2023-04-17T21:04:53.303Z,102181.06
2023-04-17T21:07:24.600Z,102177.53
2023-04-17T21:09:55.960Z,102186.34
2023-04-17T21:12:27.222Z,102167.75
2023-04-17T21:14:58.504Z,102173.13
2023-04-17T21:17:29.808Z,102175.81
2023-04-17T21:20:01.151Z,102170.53
2023-04-17T21:22:32.562Z,102179.31
2023-04-17T21:25:04.300Z,102172.25
2023-04-17T21:27:35.656Z,102181.03
2023-04-17T21:30:08.056Z,102173.94
2023-04-17T21:32:40.266Z,102162.34
2023-04-17T21:35:11.592Z,102157.94
2023-04-17T21:37:42.915Z,102164.13
2023-04-17T21:40:14.324Z,102165.06
2023-04-17T21:42:45.726Z,102189.84
2023-04-17T21:45:17.044Z,102178.38
2023-04-17T21:47:48.499Z,102177.44
2023-04-17T21:50:19.918Z,102183.63
2023-04-17T21:52:51.187Z,102176.56
2023-04-17T21:55:22.475Z,102179.22
2023-04-17T21:57:53.736Z,102185.34
2023-04-17T22:00:25.350Z,102182.69
2023-04-17T22:02:56.761Z,102126.56
2023-04-17T22:05:32.449Z,102188.81
2023-04-17T22:08:03.723Z,102173.59
2023-04-17T22:10:35.491Z,102191.28
2023-04-17T22:13:06.868Z,102188.59
2023-04-17T22:15:38.379Z,102182.25
2023-04-17T22:18:09.691Z,102191.81
2023-04-17T22:20:41.048Z,102166.81
2023-04-17T22:23:12.317Z,102200.41
2023-04-17T22:25:43.646Z,102179.13
2023-04-17T22:28:14.904Z,102199.44
2023-04-17T22:30:49.725Z,102184.41
2023-04-17T22:33:21.071Z,102184.25
2023-04-17T22:35:52.436Z,102196.72
2023-04-17T22:38:23.714Z,102196.66
2023-04-17T22:40:55.186Z,102193.84
2023-04-17T22:43:26.461Z,102197.28
2023-04-17T22:45:57.783Z,102179.50
2023-04-17T22:48:29.075Z,102206.91
2023-04-17T22:51:01.005Z,102200.63
2023-04-17T22:53:33.379Z,102202.28
2023-04-17T22:56:05.824Z,102211.00
2023-04-17T22:58:37.092Z,102213.56
2023-04-17T23:01:08.476Z,102189.50
2023-04-17T23:03:39.863Z,102202.84
2023-04-17T23:06:11.477Z,102209.00
2023-04-17T23:08:42.770Z,102215.16
2023-04-17T23:11:14.046Z,102193.69
2023-04-17T23:13:45.419Z,102211.44
2023-04-17T23:16:17.864Z,102221.97
2023-04-17T23:18:49.258Z,102197.88
2023-04-17T23:21:20.797Z,102208.50
2023-04-17T23:23:52.238Z,102209.41
2023-04-17T23:26:23.651Z,102218.13
2023-04-17T23:28:54.986Z,102211.88
2023-04-17T23:31:26.290Z,102220.59
2023-04-17T23:33:57.620Z,102216.97
2023-04-17T23:36:28.886Z,102213.41
2023-04-17T23:39:00.285Z,102215.16
2023-04-17T23:41:33.543Z,102218.69
2023-04-17T23:44:05.006Z,102203.56
2023-04-17T23:46:36.823Z,102208.13
2023-04-17T23:49:08.576Z,102219.66
2023-04-17T23:51:39.868Z,102217.88
2023-04-17T23:54:11.547Z,102209.00
2023-04-17T23:56:45.863Z,102191.13
2023-04-17T23:59:17.221Z,102199.13
